Time;durP1;ratioP1;P1;durP2;ratioP2;P2;SDS_P1;SDS_P2;PMS_P1;PMS_P2;Temp;Humidity;BMP_temperature;BMP_pressure;BME280_temperature;BME280_humidity;BME280_pressure;Samples;Min_cycle;Max_cycle;Signal;HPM_P1;HPM_P2
2020/12/26 00:01:19;;;;;;;1999.90;999.90;;;;;;;1.80;100.00;100237.02;1775549;79;20964;-64
2020/12/26 00:03:47;;;;;;;1999.90;999.90;;;;;;;1.82;100.00;100241.67;1770881;80;21365;-65
2020/12/26 00:06:17;;;;;;;1999.90;999.90;;;;;;;1.82;100.00;100247.67;1774028;79;20995;-65
2020/12/26 00:08:46;;;;;;;1999.90;999.90;;;;;;;1.81;100.00;100248.75;1784106;80;20941;-65
2020/12/26 00:11:15;;;;;;;1999.90;999.90;;;;;;;1.77;100.00;100242.17;1763990;79;21080;-65
2020/12/26 00:13:43;;;;;;;1999.90;999.90;;;;;;;1.74;100.00;100239.41;1778118;80;20967;-64
2020/12/26 00:16:14;;;;;;;1999.90;999.90;;;;;;;1.72;100.00;100242.11;1782244;80;22339;-66
2020/12/26 00:18:42;;;;;;;1999.90;999.90;;;;;;;1.72;100.00;100233.93;1784971;80;21533;-65
2020/12/26 00:21:13;;;;;;;1999.90;999.90;;;;;;;1.76;100.00;100229.61;1763296;79;21542;-64
2020/12/26 00:23:41;;;;;;;1999.90;999.90;;;;;;;1.79;100.00;100226.36;1768781;80;21092;-64
2020/12/26 00:26:09;;;;;;;1999.90;999.90;;;;;;;1.81;100.00;100220.10;1768081;79;20979;-64
2020/12/26 00:28:36;;;;;;;1999.90;999.90;;;;;;;1.88;100.00;100222.08;1787141;78;21312;-65
2020/12/26 00:31:04;;;;;;;1999.90;999.90;;;;;;;1.87;100.00;100214.97;1806559;78;20981;-64
2020/12/26 00:33:32;;;;;;;1999.90;999.90;;;;;;;1.84;100.00;100221.77;1774042;80;20992;-65
2020/12/26 00:36:01;;;;;;;1999.90;999.90;;;;;;;1.81;100.00;100219.56;1755975;79;21102;-65
2020/12/26 00:38:29;;;;;;;1999.90;999.90;;;;;;;1.81;100.00;100210.55;1787247;79;21608;-64
2020/12/26 00:40:57;;;;;;;1999.90;999.90;;;;;;;1.82;100.00;100212.20;1778726;78;21564;-63
2020/12/26 00:43:24;;;;;;;1999.90;999.90;;;;;;;1.81;100.00;100208.65;1788609;79;21213;-65
2020/12/26 00:45:52;;;;;;;1999.90;999.90;;;;;;;1.78;100.00;100211.89;1784210;79;21036;-65
2020/12/26 00:48:20;;;;;;;1999.90;999.90;;;;;;;1.84;100.00;100211.40;1775957;79;21546;-66
2020/12/26 00:50:47;;;;;;;1999.90;999.90;;;;;;;1.84;100.00;100216.31;1802780;78;21154;-65
2020/12/26 00:53:15;;;;;;;1999.90;999.90;;;;;;;1.83;100.00;100213.30;1798179;78;21210;-64
2020/12/26 00:55:43;;;;;;;1999.90;999.90;;;;;;;1.82;100.00;100202.11;1802198;78;21120;-65
2020/12/26 00:58:12;;;;;;;1999.90;999.90;;;;;;;1.81;100.00;100205.09;1801571;78;21515;-65
2020/12/26 01:00:40;;;;;;;1999.90;999.90;;;;;;;1.79;100.00;100211.35;1812164;78;21119;-65
2020/12/26 01:03:09;;;;;;;1999.90;999.90;;;;;;;1.78;100.00;100211.07;1798132;78;21087;-63
2020/12/26 01:05:38;;;;;;;1999.90;999.90;;;;;;;1.78;100.00;100217.35;1810194;78;21434;-63
2020/12/26 01:08:06;;;;;;;1999.90;999.90;;;;;;;1.81;100.00;100210.55;1803289;78;21157;-64
2020/12/26 01:10:33;;;;;;;1999.90;999.90;;;;;;;1.92;100.00;100209.56;1796945;78;21661;-65
2020/12/26 01:13:01;;;;;;;1999.90;999.90;;;;;;;1.97;100.00;100201.41;1803361;78;21103;-64
2020/12/26 01:15:29;;;;;;;1999.90;999.90;;;;;;;2.05;100.00;100210.48;1777504;78;21098;-66
2020/12/26 01:17:57;;;;;;;1999.90;999.90;;;;;;;2.13;100.00;100201.81;1778604;78;21327;-64
2020/12/26 01:20:24;;;;;;;1999.90;999.90;;;;;;;2.17;100.00;100193.92;1804083;78;21095;-63
2020/12/26 01:22:52;;;;;;;1999.90;999.90;;;;;;;2.21;100.00;100197.23;1809930;78;21146;-67
2020/12/26 01:25:20;;;;;;;1999.90;999.90;;;;;;;2.24;100.00;100192.61;1781009;79;21087;-63
2020/12/26 01:27:48;;;;;;;1999.90;999.90;;;;;;;2.29;100.00;100189.09;1806423;78;21116;-66
2020/12/26 01:30:15;;;;;;;1999.90;999.90;;;;;;;2.30;100.00;100188.01;1772354;79;21432;-67
2020/12/26 01:32:43;;;;;;;1999.90;999.90;;;;;;;2.33;100.00;100194.85;1780105;78;21146;-65
2020/12/26 01:35:11;;;;;;;1999.90;999.90;;;;;;;2.34;100.00;100193.22;1773023;80;21167;-66
2020/12/26 01:37:38;;;;;;;1999.90;999.90;;;;;;;2.37;100.00;100186.41;1799431;78;21578;-66
2020/12/26 01:40:10;;;;;;;1999.90;999.90;;;;;;;2.38;100.00;100188.88;1796886;78;21079;-66
2020/12/26 01:42:36;;;;;;;1999.90;999.90;;;;;;;2.39;100.00;100193.80;1786863;78;22206;-66
2020/12/26 01:45:04;;;;;;;1999.90;999.90;;;;;;;2.41;100.00;100192.99;1786779;78;21535;-65
2020/12/26 01:47:32;;;;;;;1999.90;999.90;;;;;;;2.43;100.00;100196.28;1784569;79;21555;-62
2020/12/26 01:50:02;;;;;;;1999.90;999.90;;;;;;;2.46;100.00;100188.38;1799602;78;21633;-65
2020/12/26 01:52:30;;;;;;;1999.90;999.90;;;;;;;2.48;100.00;100188.12;1798651;78;21578;-65
2020/12/26 01:54:57;;;;;;;1999.90;999.90;;;;;;;2.48;100.00;100189.48;1806040;78;21366;-65
2020/12/26 01:57:34;;;;;;;1999.90;999.90;;;;;;;2.50;100.00;100187.31;1807680;78;21002;-63
2020/12/26 02:00:05;;;;;;;1999.90;999.90;;;;;;;2.49;100.00;100181.56;1777008;78;21103;-63
2020/12/26 02:02:35;;;;;;;1999.90;999.90;;;;;;;2.49;100.00;100183.76;1767666;80;21627;-65
2020/12/26 02:05:03;;;;;;;1999.90;999.90;;;;;;;2.50;100.00;100173.11;1769232;79;21107;-63
2020/12/26 02:07:31;;;;;;;1999.90;999.90;;;;;;;2.51;100.00;100179.39;1777225;79;21369;-63
2020/12/26 02:09:58;;;;;;;1999.90;999.90;;;;;;;2.53;100.00;100174.48;1782232;80;21107;-64
2020/12/26 02:12:26;;;;;;;1999.90;999.90;;;;;;;2.48;100.00;100178.56;1804104;78;21554;-62
2020/12/26 02:14:54;;;;;;;1999.90;999.90;;;;;;;2.36;100.00;100176.03;1807725;78;21118;-63
2020/12/26 02:17:28;;;;;;;1999.90;999.90;;;;;;;2.25;100.00;100173.78;1803309;78;21128;-63
2020/12/26 02:19:56;;;;;;;1999.90;999.90;;;;;;;2.18;100.00;100179.19;1798696;78;21429;-65
2020/12/26 02:22:24;;;;;;;1999.90;999.90;;;;;;;2.10;100.00;100179.67;1809888;78;21131;-66
2020/12/26 02:24:52;;;;;;;1999.90;999.90;;;;;;;2.03;100.00;100184.53;1793262;78;21684;-66
2020/12/26 02:27:19;;;;;;;1999.90;999.90;;;;;;;1.96;100.00;100184.76;1806269;78;21139;-65
2020/12/26 02:29:47;;;;;;;1999.90;999.90;;;;;;;1.90;100.00;100184.44;1780777;79;21103;-64
2020/12/26 02:32:15;;;;;;;1999.90;999.90;;;;;;;1.85;100.00;100190.67;1789877;79;21366;-65
2020/12/26 02:34:42;;;;;;;1999.90;999.90;;;;;;;1.82;100.00;100183.55;1791292;79;21127;-62
2020/12/26 02:37:11;;;;;;;1999.90;999.90;;;;;;;1.78;100.00;100183.25;1807039;78;21903;-62
2020/12/26 02:39:39;;;;;;;1999.90;999.90;;;;;;;1.75;100.00;100189.22;1803604;77;21546;-62
2020/12/26 02:42:06;;;;;;;1999.90;999.90;;;;;;;1.71;100.00;100184.00;1811595;78;21086;-65
2020/12/26 02:44:34;;;;;;;1999.90;999.90;;;;;;;1.69;100.00;100191.62;1807974;78;21368;-65
2020/12/26 02:47:01;;;;;;;1999.90;999.90;;;;;;;1.64;100.00;100190.75;1819493;78;21151;-62
2020/12/26 02:49:29;;;;;;;1999.90;999.90;;;;;;;1.57;100.00;100189.05;1781377;79;21099;-62
2020/12/26 02:51:57;;;;;;;1999.90;999.90;;;;;;;1.54;100.00;100190.11;1816059;78;21095;-65
2020/12/26 02:54:24;;;;;;;1999.90;999.90;;;;;;;1.51;100.00;100195.55;1795839;79;21573;-65
2020/12/26 02:56:52;;;;;;;1999.90;999.90;;;;;;;1.48;100.00;100191.14;1799092;79;21334;-62
2020/12/26 02:59:20;;;;;;;1999.90;999.90;;;;;;;1.47;100.00;100190.32;1791462;78;20981;-62
2020/12/26 03:01:47;;;;;;;1999.90;999.90;;;;;;;1.45;100.00;100194.38;1790180;79;21573;-64
2020/12/26 03:04:15;;;;;;;1999.90;999.90;;;;;;;1.43;100.00;100195.19;1800948;78;21550;-62
2020/12/26 03:06:43;;;;;;;1999.90;999.90;;;;;;;1.42;100.00;100186.18;1790129;79;21102;-62
2020/12/26 03:09:10;;;;;;;1999.90;999.90;;;;;;;1.41;100.00;100189.98;1790012;78;21137;-62
2020/12/26 03:11:39;;;;;;;1999.90;999.90;;;;;;;1.40;100.00;100190.24;1785317;79;21119;-62
2020/12/26 03:14:06;;;;;;;1999.90;999.90;;;;;;;1.37;100.00;100194.31;1795968;79;21107;-62
2020/12/26 03:16:34;;;;;;;1999.90;999.90;;;;;;;1.34;100.00;100192.09;1787506;78;21575;-62
2020/12/26 03:19:02;;;;;;;1999.90;999.90;;;;;;;1.33;100.00;100186.36;1793461;79;21122;-62
2020/12/26 03:21:30;;;;;;;1999.90;999.90;;;;;;;1.33;100.00;100190.98;1798226;79;21434;-62
2020/12/26 03:23:58;;;;;;;1999.90;999.90;;;;;;;1.32;100.00;100187.98;1789162;79;21106;-62
2020/12/26 03:26:25;;;;;;;1999.90;999.90;;;;;;;1.32;100.00;100186.08;1787527;78;21159;-62
2020/12/26 03:28:53;;;;;;;1999.90;999.90;;;;;;;1.30;100.00;100186.88;1787319;79;21100;-65
2020/12/26 03:31:21;;;;;;;1999.90;999.90;;;;;;;1.28;100.00;100191.22;1772355;79;21543;-66
2020/12/26 03:33:48;;;;;;;1999.90;999.90;;;;;;;1.29;100.00;100194.23;1762654;80;21377;-65
2020/12/26 03:36:16;;;;;;;1999.90;999.90;;;;;;;1.29;100.00;100191.50;1760236;80;21131;-66
2020/12/26 03:38:43;;;;;;;1999.90;999.90;;;;;;;1.28;100.00;100189.85;1762044;80;21095;-65
2020/12/26 03:41:11;;;;;;;1999.90;999.90;;;;;;;1.28;100.00;100190.39;1762272;79;20965;-62
2020/12/26 03:43:39;;;;;;;1999.90;999.90;;;;;;;1.27;100.00;100192.84;1758342;80;21107;-66
2020/12/26 03:46:06;;;;;;;1999.90;999.90;;;;;;;1.25;100.00;100190.36;1765719;79;21196;-62
2020/12/26 03:48:35;;;;;;;1999.90;999.90;;;;;;;1.26;100.00;100187.09;1758424;80;21147;-66
2020/12/26 03:51:03;;;;;;;1999.90;999.90;;;;;;;1.29;100.00;100187.95;1762564;79;21131;-66
2020/12/26 03:53:30;;;;;;;1999.90;999.90;;;;;;;1.40;100.00;100190.24;1777911;79;21110;-67
2020/12/26 03:55:58;;;;;;;1999.90;999.90;;;;;;;1.49;100.00;100188.16;1777696;79;21162;-66
2020/12/26 03:58:26;;;;;;;1999.90;999.90;;;;;;;1.59;100.00;100194.25;1771202;79;21449;-66
2020/12/26 04:00:53;;;;;;;1999.90;999.90;;;;;;;1.67;100.00;100196.52;1778689;78;21020;-62
2020/12/26 04:03:21;;;;;;;1999.90;999.90;;;;;;;1.76;100.00;100191.41;1772422;79;21147;-66
2020/12/26 04:05:50;;;;;;;1999.90;999.90;;;;;;;1.80;100.00;100190.63;1773965;79;21114;-65
2020/12/26 04:08:18;;;;;;;1999.90;999.90;;;;;;;1.86;100.00;100188.22;1771046;79;21578;-63
2020/12/26 04:10:45;;;;;;;1999.90;999.90;;;;;;;1.96;100.00;100191.58;1778199;78;21527;-62
2020/12/26 04:13:13;;;;;;;1999.90;999.90;;;;;;;2.02;100.00;100193.81;1772267;79;21165;-66
2020/12/26 04:15:41;;;;;;;1999.90;999.90;;;;;;;1.97;100.00;100189.67;1767637;79;21114;-67
2020/12/26 04:18:08;;;;;;;1999.90;999.90;;;;;;;1.86;100.00;100199.14;1790221;79;21127;-66
2020/12/26 04:20:37;;;;;;;1999.90;999.90;;;;;;;1.76;100.00;100203.69;1760346;80;21075;-63
2020/12/26 04:23:04;;;;;;;1999.90;999.90;;;;;;;1.71;100.00;100199.55;1781585;79;22289;-65
2020/12/26 04:25:32;;;;;;;1999.90;999.90;;;;;;;1.74;100.00;100205.85;1770320;79;21099;-66
2020/12/26 04:28:00;;;;;;;1999.90;999.90;;;;;;;1.77;100.00;100196.61;1773595;79;21027;-66
2020/12/26 04:30:27;;;;;;;1999.90;999.90;;;;;;;1.73;100.00;100196.02;1783589;79;21091;-62
2020/12/26 04:32:55;;;;;;;1999.90;999.90;;;;;;;1.65;100.00;100195.12;1784072;79;21534;-63
2020/12/26 04:35:22;;;;;;;1999.90;999.90;;;;;;;1.60;100.00;100194.53;1784172;78;22233;-64
2020/12/26 04:37:50;;;;;;;1999.90;999.90;;;;;;;1.52;100.00;100196.37;1788500;79;21190;-66
2020/12/26 04:40:18;;;;;;;1999.90;999.90;;;;;;;1.47;100.00;100194.95;1777876;79;21107;-63
2020/12/26 04:42:45;;;;;;;1999.90;999.90;;;;;;;1.46;100.00;100207.77;1786567;79;21090;-64
2020/12/26 04:45:13;;;;;;;1999.90;999.90;;;;;;;1.41;100.00;100202.80;1791558;78;21632;-66
2020/12/26 04:47:45;;;;;;;1999.90;999.90;;;;;;;1.39;100.00;100202.23;1792806;79;22239;-64
2020/12/26 04:50:13;;;;;;;1999.90;999.90;;;;;;;1.35;100.00;100207.38;1781010;78;21130;-64
2020/12/26 04:52:45;;;;;;;1999.90;999.90;;;;;;;1.35;100.00;100213.37;1765908;79;21620;-66
2020/12/26 04:55:13;;;;;;;1999.90;999.90;;;;;;;1.35;100.00;100216.92;1762238;79;21115;-63
2020/12/26 04:57:41;;;;;;;1999.90;999.90;;;;;;;1.34;100.00;100222.63;1764311;78;21106;-63
2020/12/26 05:00:08;;;;;;;1999.90;999.90;;;;;;;1.31;100.00;100221.77;1754568;79;21372;-64
2020/12/26 05:02:41;;;;;;;1999.90;999.90;;;;;;;1.27;100.00;100220.09;1785409;79;21134;-65
2020/12/26 05:05:09;;;;;;;1999.90;999.90;;;;;;;1.25;100.00;100219.53;1782930;79;21106;-65
2020/12/26 05:07:36;;;;;;;1999.90;999.90;;;;;;;1.23;100.00;100221.15;1807065;78;21562;-63
2020/12/26 05:10:04;;;;;;;1999.90;999.90;;;;;;;1.22;100.00;100219.50;1809392;78;21103;-63
2020/12/26 05:12:32;;;;;;;1999.90;999.90;;;;;;;1.20;100.00;100229.84;1790155;78;21366;-63
2020/12/26 05:15:03;;;;;;;1999.90;999.90;;;;;;;1.20;100.00;100232.56;1805239;78;21127;-63
2020/12/26 05:17:31;;;;;;;1999.90;999.90;;;;;;;1.18;100.00;100230.63;1807605;78;20977;-66
2020/12/26 05:19:59;;;;;;;1999.90;999.90;;;;;;;1.17;100.00;100234.97;1795999;78;21108;-63
2020/12/26 05:22:28;;;;;;;1999.90;999.90;;;;;;;1.14;100.00;100230.03;1805611;78;21009;-66
2020/12/26 05:25:10;;;;;;;1999.90;999.90;;;;;;;1.14;100.00;100232.76;1793539;78;21484;-62
2020/12/26 05:27:38;;;;;;;1999.90;999.90;;;;;;;1.13;100.00;100235.20;1805162;78;21076;-65
2020/12/26 05:30:06;;;;;;;1999.90;999.90;;;;;;;1.09;100.00;100235.42;1800355;78;21095;-64
2020/12/26 05:32:34;;;;;;;1999.90;999.90;;;;;;;1.08;100.00;100237.33;1814936;78;21123;-66
2020/12/26 05:35:07;;;;;;;1999.90;999.90;;;;;;;1.07;100.00;100242.48;1802626;78;21099;-66
2020/12/26 05:37:35;;;;;;;1999.90;999.90;;;;;;;1.06;100.00;100250.92;1808339;78;21375;-65
2020/12/26 05:40:03;;;;;;;1999.90;999.90;;;;;;;1.06;100.00;100257.19;1803884;78;21624;-65
2020/12/26 05:42:31;;;;;;;1999.90;999.90;;;;;;;1.06;100.00;100267.27;1811502;78;21150;-64
2020/12/26 05:45:07;;;;;;;1999.90;999.90;;;;;;;1.05;100.00;100263.72;1786465;78;21063;-65
2020/12/26 05:47:35;;;;;;;1999.90;999.90;;;;;;;1.03;100.00;100257.70;1799666;78;21170;-66
2020/12/26 05:50:03;;;;;;;1999.90;999.90;;;;;;;1.03;100.00;100269.97;1791294;78;22239;-63
2020/12/26 05:52:32;;;;;;;1999.90;999.90;;;;;;;1.04;100.00;100273.52;1809872;78;21126;-76
2020/12/26 05:55:00;;;;;;;1999.90;999.90;;;;;;;1.02;100.00;100268.31;1804767;79;21304;-67
2020/12/26 05:57:27;;;;;;;1999.90;999.90;;;;;;;1.02;100.00;100268.31;1792240;79;21131;-67
2020/12/26 05:59:55;;;;;;;1999.90;999.90;;;;;;;1.05;100.00;100271.08;1782203;79;21114;-64
2020/12/26 06:02:26;;;;;;;1999.90;999.90;;;;;;;1.07;100.00;100268.38;1782429;79;21208;-73
2020/12/26 06:04:57;;;;;;;1999.90;999.90;;;;;;;1.09;100.00;100268.13;1782667;79;21170;-67
2020/12/26 06:07:36;;;;;;;1999.90;999.90;;;;;;;1.08;100.00;100271.93;1795127;79;21550;-63
2020/12/26 06:10:06;;;;;;;1999.90;999.90;;;;;;;1.07;100.00;100275.73;1796777;78;20969;-69
2020/12/26 06:12:34;;;;;;;1999.90;999.90;;;;;;;1.07;100.00;100273.83;1784128;79;21518;-73
2020/12/26 06:15:02;;;;;;;1999.90;999.90;;;;;;;1.09;100.00;100274.41;1801535;78;21375;-64
2020/12/26 06:17:34;;;;;;;1999.90;999.90;;;;;;;1.12;100.00;100275.80;1795822;79;21115;-64
2020/12/26 06:20:04;;;;;;;1999.90;999.90;;;;;;;1.14;100.00;100281.28;1782913;79;21024;-64
2020/12/26 06:22:49;;;;;;;1999.90;999.90;;;;;;;1.17;100.00;100282.67;1790188;78;21107;-66
2020/12/26 06:25:20;;;;;;;1999.90;999.90;;;;;;;1.16;100.00;100275.04;1784958;78;21526;-67
2020/12/26 06:28:01;;;;;;;1999.90;999.90;;;;;;;1.13;100.00;100286.45;1798234;79;21398;-63
2020/12/26 06:30:29;;;;;;;1999.90;999.90;;;;;;;1.11;100.00;100289.97;1781148;79;21110;-65
2020/12/26 06:32:57;;;;;;;1999.90;999.90;;;;;;;1.10;100.00;100282.86;1772812;79;21129;-61
2020/12/26 06:35:28;;;;;;;1999.90;999.90;;;;;;;1.13;100.00;100289.17;1764714;79;21098;-62
2020/12/26 06:38:12;;;;;;;1999.90;999.90;;;;;;;1.15;100.00;100291.11;1774800;80;21518;-62
2020/12/26 06:41:14;;;;;;;1999.90;999.90;;;;;;;1.19;100.00;100294.98;1766272;79;21385;-61
2020/12/26 06:43:48;;;;;;;1999.90;999.90;;;;;;;1.24;100.00;100300.49;1760557;80;21472;-64
2020/12/26 06:46:27;;;;;;;1999.90;999.90;;;;;;;1.28;100.00;100290.73;1764458;79;21173;-69
2020/12/26 06:48:57;;;;;;;1999.90;999.90;;;;;;;1.33;100.00;100299.51;1760943;80;21181;-72
2020/12/26 06:51:42;;;;;;;1999.90;999.90;;;;;;;1.37;100.00;100298.46;1767964;79;21110;-68
2020/12/26 06:54:12;;;;;;;1999.90;999.90;;;;;;;1.40;100.00;100298.78;1767898;80;21207;-64
2020/12/26 06:56:46;;;;;;;1999.90;999.90;;;;;;;1.38;100.00;100296.02;1722058;80;21126;-65
2020/12/26 06:59:15;;;;;;;1999.90;999.90;;;;;;;1.33;100.00;100311.78;1769624;80;21134;-65
2020/12/26 07:01:46;;;;;;;1999.90;999.90;;;;;;;1.25;100.00;100313.05;1761753;79;21189;-66
2020/12/26 07:04:19;;;;;;;1999.90;999.90;;;;;;;1.20;100.00;100316.25;1767609;79;21142;-70
2020/12/26 07:06:53;;;;;;;1999.90;999.90;;;;;;;1.17;100.00;100328.48;1769003;79;21352;-65
2020/12/26 07:09:42;;;;;;;1999.90;999.90;;;;;;;1.16;100.00;100330.09;1748162;80;21016;-66
2020/12/26 07:12:09;;;;;;;1999.90;999.90;;;;;;;1.15;100.00;100326.55;1753897;79;21095;-64
2020/12/26 07:14:42;;;;;;;1999.90;999.90;;;;;;;1.16;100.00;100325.47;1762459;80;21095;-64
2020/12/26 07:17:21;;;;;;;1999.90;999.90;;;;;;;1.18;100.00;100327.41;1758602;79;21217;-67
2020/12/26 07:19:53;;;;;;;1999.90;999.90;;;;;;;1.19;100.00;100338.59;1752873;80;21214;-66
2020/12/26 07:22:31;;;;;;;1999.90;999.90;;;;;;;1.20;100.00;100336.15;1729846;80;21169;-64
2020/12/26 07:25:02;;;;;;;1999.90;999.90;;;;;;;1.25;100.00;100329.94;1762796;80;21162;-67
2020/12/26 07:27:39;;;;;;;1999.90;999.90;;;;;;;1.27;100.00;100336.79;1736537;80;21557;-63
2020/12/26 07:30:18;;;;;;;1999.90;999.90;;;;;;;1.31;100.00;100338.47;1771037;79;21558;-64
2020/12/26 07:32:53;;;;;;;1999.90;999.90;;;;;;;1.35;100.00;100335.52;1785368;79;21362;-66
2020/12/26 07:35:27;;;;;;;1999.90;999.90;;;;;;;1.37;100.00;100346.18;1776935;79;21174;-66
2020/12/26 07:38:09;;;;;;;1999.90;999.90;;;;;;;1.35;100.00;100347.80;1779209;80;21135;-67
2020/12/26 07:40:46;;;;;;;1999.90;999.90;;;;;;;1.33;100.00;100347.22;1773860;79;21072;-65
2020/12/26 07:43:15;;;;;;;1999.90;999.90;;;;;;;1.35;100.00;100352.42;1784638;80;21095;-67
2020/12/26 07:45:45;;;;;;;1999.90;999.90;;;;;;;1.33;100.00;100358.13;1773904;79;21316;-65
2020/12/26 07:48:13;;;;;;;1999.90;999.90;;;;;;;1.29;100.00;100367.36;1800343;78;21138;-68
2020/12/26 07:50:42;;;;;;;1999.90;999.90;;;;;;;1.28;100.00;100369.80;1782955;80;21152;-67
2020/12/26 07:53:12;;;;;;;1999.90;999.90;;;;;;;1.27;100.00;100365.95;1781135;80;21133;-67
2020/12/26 07:55:40;;;;;;;1999.90;999.90;;;;;;;1.26;100.00;100372.48;1775984;79;21095;-64
2020/12/26 07:58:12;;;;;;;1999.90;999.90;;;;;;;1.24;100.00;100370.55;1802595;78;22331;-64
2020/12/26 08:00:46;;;;;;;1999.90;999.90;;;;;;;1.25;100.00;100379.84;1782098;79;21459;-68
2020/12/26 08:03:18;;;;;;;1999.90;999.90;;;;;;;1.25;100.00;100385.29;1788670;79;21527;-66
2020/12/26 08:05:47;;;;;;;1999.90;999.90;;;;;;;1.26;100.00;100391.03;1815714;78;21083;-66
2020/12/26 08:08:27;;;;;;;1999.90;999.90;;;;;;;1.29;100.00;100397.88;1810160;78;21079;-66
2020/12/26 08:11:00;;;;;;;1999.90;999.90;;;;;;;1.31;100.00;100394.36;1789267;78;21364;-66
2020/12/26 08:13:31;;;;;;;;;;;;;;;1.37;100.00;100397.45;1784472;79;21120;-64
2020/12/26 08:16:05;;;;;;;1999.90;999.90;;;;;;;1.42;100.00;100405.70;1802509;77;20546;-67
2020/12/26 08:18:35;;;;;;;1999.90;999.90;;;;;;;1.44;100.00;100400.82;1808975;78;21122;-67
2020/12/26 08:21:06;;;;;;;1999.90;999.90;;;;;;;1.48;100.00;100393.78;1782257;78;21084;-67
2020/12/26 08:23:33;;;;;;;1999.90;999.90;;;;;;;1.53;100.00;100388.39;1797306;78;21399;-70
2020/12/26 08:26:01;;;;;;;1999.90;999.90;;;;;;;1.59;100.00;100392.84;1768794;79;21158;-69
2020/12/26 08:28:30;;;;;;;1999.90;999.90;;;;;;;1.63;100.00;100396.42;1810360;78;21783;-61
2020/12/26 08:31:02;;;;;;;1999.90;999.90;;;;;;;1.64;100.00;100409.80;1808649;78;21110;-62
2020/12/26 08:33:39;;;;;;;1999.90;999.90;;;;;;;1.65;100.00;100409.27;1778944;78;21099;-61
2020/12/26 08:36:28;;;;;;;1999.90;999.90;;;;;;;1.62;100.00;100422.88;1784769;78;21370;-62
2020/12/26 08:38:58;;;;;;;1999.90;999.90;;;;;;;1.59;100.00;100423.37;1766688;80;21091;-61
2020/12/26 08:41:27;;;;;;;1999.90;999.90;;;;;;;1.58;100.00;100428.55;1779055;79;21130;-63
2020/12/26 08:43:55;;;;;;;1999.90;999.90;;;;;;;1.60;100.00;100423.13;1808227;78;21151;-64
2020/12/26 08:46:23;;;;;;;1999.90;999.90;;;;;;;1.63;100.00;100425.89;1805384;78;21138;-63
2020/12/26 08:48:55;;;;;;;1999.90;999.90;;;;;;;1.66;100.00;100432.74;1804132;78;21190;-67
2020/12/26 08:51:27;;;;;;;1999.90;999.90;;;;;;;1.67;100.00;100434.39;1814774;78;21084;-64
2020/12/26 08:53:58;;;;;;;1999.90;999.90;;;;;;;1.67;100.00;100432.49;1803710;78;21080;-64
2020/12/26 08:56:34;;;;;;;1999.90;999.90;;;;;;;1.70;100.00;100446.98;1808532;78;21017;-67
2020/12/26 08:59:04;;;;;;;1999.90;999.90;;;;;;;1.70;100.00;100444.80;1783638;78;21427;-67
2020/12/26 09:01:32;;;;;;;1999.90;999.90;;;;;;;1.71;100.00;100449.18;1781660;80;22188;-65
2020/12/26 09:04:01;;;;;;;1999.90;999.90;;;;;;;1.70;100.00;100443.44;1797564;77;21123;-66
2020/12/26 09:06:33;;;;;;;1999.90;999.90;;;;;;;1.68;100.00;100445.05;1768226;80;21107;-69
2020/12/26 09:09:22;;;;;;;1999.90;999.90;;;;;;;1.71;100.00;100447.81;1803308;78;21129;-67
2020/12/26 09:12:01;;;;;;;1999.90;999.90;;;;;;;1.71;100.00;100440.45;1777990;79;21522;-66
2020/12/26 09:14:30;;;;;;;1999.90;999.90;;;;;;;1.69;100.00;100433.60;1772038;79;22252;-66
2020/12/26 09:17:02;;;;;;;1999.90;999.90;;;;;;;1.71;100.00;100436.36;1800709;78;21139;-67
2020/12/26 09:19:43;;;;;;;1999.90;999.90;;;;;;;1.72;100.00;100434.45;1773782;79;21541;-66
2020/12/26 09:22:12;;;;;;;1999.90;999.90;;;;;;;1.73;100.00;100445.66;1802002;78;21130;-65
2020/12/26 09:24:40;;;;;;;1999.90;999.90;;;;;;;1.73;100.00;100446.48;1804259;78;21080;-62
2020/12/26 09:27:23;;;;;;;1999.90;999.90;;;;;;;1.74;100.00;100441.85;1790106;79;21398;-67
2020/12/26 09:30:05;;;;;;;1999.90;999.90;;;;;;;1.73;100.00;100436.11;1801038;78;21175;-64
2020/12/26 09:32:33;;;;;;;1999.90;999.90;;;;;;;1.72;100.00;100455.75;1773184;78;21121;-70
2020/12/26 09:35:17;;;;;;;1999.90;999.90;;;;;;;1.73;100.00;100455.21;1805017;78;21126;-66
2020/12/26 09:37:55;;;;;;;1999.90;999.90;;;;;;;1.73;100.00;100468.31;1776053;80;21092;-62
2020/12/26 09:40:34;;;;;;;1999.90;999.90;;;;;;;1.72;100.00;100476.75;1790333;78;22120;-63
2020/12/26 09:43:04;;;;;;;1999.90;999.90;;;;;;;1.68;100.00;100488.70;1780741;78;21008;-70
2020/12/26 09:45:32;;;;;;;1999.90;999.90;;;;;;;1.66;100.00;100492.22;1805920;78;21115;-67
2020/12/26 09:47:59;;;;;;;1999.90;999.90;;;;;;;1.61;100.00;100494.87;1798510;78;20969;-67
2020/12/26 09:50:28;;;;;;;1999.90;999.90;;;;;;;1.61;100.00;100487.52;1809660;78;21278;-68
2020/12/26 09:52:56;;;;;;;1999.90;999.90;;;;;;;1.61;100.00;100487.52;1792076;78;21361;-68
2020/12/26 09:55:26;;;;;;;1999.90;999.90;;;;;;;1.63;100.00;100492.73;1784666;80;21141;-67
2020/12/26 09:57:55;;;;;;;1999.90;999.90;;;;;;;1.64;100.00;100494.91;1807631;78;21578;-66
2020/12/26 10:00:23;;;;;;;1999.90;999.90;;;;;;;1.66;100.00;100492.77;1804299;78;20993;-68
2020/12/26 10:02:51;;;;;;;1999.90;999.90;;;;;;;1.66;100.00;100489.49;1808904;78;21586;-69
2020/12/26 10:05:19;;;;;;;1999.90;999.90;;;;;;;1.65;100.00;100494.66;1810808;78;21162;-68
2020/12/26 10:07:48;;;;;;;1999.90;999.90;;;;;;;1.65;100.00;100498.76;1779694;79;21566;-69
2020/12/26 10:10:15;;;;;;;1999.90;999.90;;;;;;;1.62;100.00;100504.71;1777746;79;21135;-66
2020/12/26 10:12:43;;;;;;;1999.90;999.90;;;;;;;1.61;100.00;100490.79;1773575;79;21700;-71
2020/12/26 10:15:11;;;;;;;1999.90;999.90;;;;;;;1.58;100.00;100480.38;1776711;79;21537;-68
2020/12/26 10:17:40;;;;;;;1999.90;999.90;;;;;;;1.56;100.00;100486.08;1784707;79;22321;-67
2020/12/26 10:20:07;;;;;;;1999.90;999.90;;;;;;;1.53;100.00;100485.22;1786463;79;20997;-63
2020/12/26 10:22:35;;;;;;;1999.90;999.90;;;;;;;1.48;100.00;100491.97;1783161;79;21553;-69
2020/12/26 10:25:09;;;;;;;1999.90;999.90;;;;;;;1.43;100.00;100494.62;1783562;79;21546;-67
2020/12/26 10:27:37;;;;;;;1999.90;999.90;;;;;;;1.41;100.00;100494.04;1781467;79;21083;-66
2020/12/26 10:30:05;;;;;;;1999.90;999.90;;;;;;;1.39;100.00;100503.55;1781116;79;21405;-67
2020/12/26 10:32:33;;;;;;;1999.90;999.90;;;;;;;1.38;100.00;100489.09;1813622;77;21122;-65
2020/12/26 10:35:03;;;;;;;1999.90;999.90;;;;;;;1.37;100.00;100481.98;1805778;78;21150;-70
2020/12/26 10:37:31;;;;;;;1999.90;999.90;;;;;;;1.38;100.00;100469.17;1809349;78;21095;-70
2020/12/26 10:39:59;;;;;;;1999.90;999.90;;;;;;;1.37;100.00;100488.80;1807789;78;21105;-69
2020/12/26 10:42:28;;;;;;;1999.90;999.90;;;;;;;1.39;100.00;100493.47;1787702;79;21195;-69
2020/12/26 10:44:56;;;;;;;1999.90;999.90;;;;;;;1.41;100.00;100489.95;1784827;80;21112;-69
2020/12/26 10:47:23;;;;;;;1999.90;999.90;;;;;;;1.44;100.00;100485.36;1782913;79;20996;-69
2020/12/26 10:49:51;;;;;;;1999.90;999.90;;;;;;;1.46;100.00;100469.58;1784581;79;21189;-66
2020/12/26 10:52:19;;;;;;;1999.90;999.90;;;;;;;1.47;100.00;100460.31;1785999;79;21083;-69
2020/12/26 10:54:47;;;;;;;1999.90;999.90;;;;;;;1.48;100.00;100479.69;1778976;79;21204;-66
2020/12/26 10:57:15;;;;;;;1999.90;999.90;;;;;;;1.47;100.00;100502.59;1789625;78;21158;-69
2020/12/26 10:59:43;;;;;;;1999.90;999.90;;;;;;;1.49;100.00;100515.44;1788159;79;21117;-66